Time;durP1;ratioP1;P1;durP2;ratioP2;P2;SDS_P1;SDS_P2;PMS_P1;PMS_P2;Temp;Humidity;BMP_temperature;BMP_pressure;BME280_temperature;BME280_humidity;BME280_pressure;Samples;Min_cycle;Max_cycle;Signal;HPM_P1;HPM_P2
2022/06/01 00:01:52;;;;;;;8.20;5.77;;;16.50;85.20;;;;;;5056547;28;20185;-62
2022/06/01 00:04:20;;;;;;;6.63;6.03;;;16.60;85.20;;;;;;5056814;28;20189;-62
2022/06/01 00:06:45;;;;;;;6.93;6.10;;;16.60;85.30;;;;;;5071021;28;20186;-62
2022/06/01 00:09:12;;;;;;;6.07;5.57;;;16.60;85.30;;;;;;5054748;28;20256;-62
2022/06/01 00:11:38;;;;;;;7.03;6.37;;;16.70;85.40;;;;;;5072725;28;20660;-62
2022/06/01 00:14:04;;;;;;;6.40;5.80;;;16.70;85.40;;;;;;5067624;28;20274;-62
2022/06/01 00:16:31;;;;;;;6.80;6.10;;;16.70;85.30;;;;;;5060852;28;20182;-62
2022/06/01 00:18:57;;;;;;;7.87;5.47;;;16.70;84.90;;;;;;5051048;28;20198;-62
2022/06/01 00:21:23;;;;;;;8.00;5.57;;;16.80;84.90;;;;;;5052407;28;20212;-62
2022/06/01 00:23:49;;;;;;;6.67;5.70;;;16.80;84.70;;;;;;5046768;28;20188;-63
2022/06/01 00:26:15;;;;;;;6.60;5.87;;;16.80;84.60;;;;;;5041794;28;20250;-63
2022/06/01 00:28:41;;;;;;;6.87;5.30;;;16.80;84.50;;;;;;5070705;28;20201;-63
2022/06/01 00:31:07;;;;;;;5.33;4.67;;;16.80;84.50;;;;;;5058492;28;20185;-62
2022/06/01 00:33:33;;;;;;;6.93;4.83;;;16.80;84.10;;;;;;5038642;28;20181;-62
2022/06/01 00:35:58;;;;;;;6.90;4.43;;;16.80;83.90;;;;;;5051644;28;20277;-62
2022/06/01 00:38:24;;;;;;;6.07;4.77;;;16.80;83.90;;;;;;5065499;28;20188;-62
2022/06/01 00:40:50;;;;;;;5.50;4.80;;;16.80;83.80;;;;;;5058493;28;20224;-62
2022/06/01 00:43:44;;;;;;;5.00;4.60;;;16.80;83.50;;;;;;5059921;28;20264;-62
2022/06/01 00:46:10;;;;;;;4.03;3.23;;;16.80;83.00;;;;;;5064578;28;20192;-62
2022/06/01 00:48:39;;;;;;;4.20;3.17;;;16.80;80.90;;;;;;5067756;28;20205;-62
2022/06/01 00:51:06;;;;;;;4.40;3.97;;;16.80;80.00;;;;;;5063761;28;20184;-62
2022/06/01 00:53:36;;;;;;;7.13;3.70;;;16.90;80.80;;;;;;5061293;28;20185;-62
2022/06/01 00:56:07;;;;;;;4.40;4.00;;;16.90;81.20;;;;;;5063204;28;20224;-62
2022/06/01 00:58:37;;;;;;;4.03;3.60;;;16.90;81.20;;;;;;5082641;28;20192;-62
2022/06/01 01:01:05;;;;;;;5.27;3.20;;;17.00;81.60;;;;;;5068026;28;20222;-62
2022/06/01 01:03:35;;;;;;;5.17;3.43;;;17.00;81.70;;;;;;5066307;28;20190;-62
2022/06/01 01:06:35;;;;;;;3.80;3.40;;;17.00;81.40;;;;;;5083170;28;20276;-62
2022/06/01 01:09:02;;;;;;;3.70;3.30;;;17.00;81.60;;;;;;5056416;28;20245;-62
2022/06/01 01:11:54;;;;;;;3.93;2.57;;;16.90;81.30;;;;;;5053477;28;20182;-62
2022/06/01 01:14:29;;;;;;;2.30;2.10;;;16.90;80.10;;;;;;5060999;28;20190;-62
2022/06/01 01:16:55;;;;;;;2.70;1.87;;;16.90;78.40;;;;;;5058392;28;20185;-62
2022/06/01 01:19:35;;;;;;;3.13;1.80;;;16.90;77.00;;;;;;5044905;28;20198;-62
2022/06/01 01:22:22;;;;;;;2.23;2.03;;;16.90;75.20;;;;;;5080058;28;20190;-62
2022/06/01 01:25:10;;;;;;;1.57;1.47;;;17.00;75.40;;;;;;5085589;28;20209;-62
2022/06/01 01:27:35;;;;;;;2.00;1.60;;;17.00;73.10;;;;;;5067718;28;20182;-62
2022/06/01 01:30:21;;;;;;;1.63;1.53;;;17.00;72.20;;;;;;5054144;28;20256;-62
2022/06/01 01:32:47;;;;;;;2.00;1.50;;;17.10;72.40;;;;;;5061319;28;20201;-62
2022/06/01 01:35:12;;;;;;;1.90;1.40;;;17.10;72.80;;;;;;5065190;28;20186;-62
2022/06/01 01:37:38;;;;;;;1.50;1.40;;;17.10;73.00;;;;;;5046737;28;20182;-62
2022/06/01 01:40:04;;;;;;;1.50;1.40;;;17.10;72.10;;;;;;5052818;28;20270;-62
2022/06/01 01:42:30;;;;;;;1.63;1.40;;;17.20;72.10;;;;;;5049233;28;20229;-62
2022/06/01 01:45:02;;;;;;;2.97;1.67;;;17.10;72.00;;;;;;5046852;28;20190;-62
2022/06/01 01:47:28;;;;;;;2.03;1.20;;;17.20;72.40;;;;;;5083062;28;20185;-62
2022/06/01 01:49:54;;;;;;;1.17;1.00;;;17.00;70.80;;;;;;5055891;28;20210;-62
2022/06/01 01:52:20;;;;;;;1.77;1.67;;;17.10;70.80;;;;;;5055189;28;20187;-62
2022/06/01 01:54:52;;;;;;;2.37;1.40;;;17.10;71.00;;;;;;5072437;28;20266;-62
2022/06/01 01:57:34;;;;;;;3.53;1.40;;;17.10;71.50;;;;;;5076013;28;20235;-62
2022/06/01 02:00:14;;;;;;;1.30;1.20;;;17.00;71.50;;;;;;5070726;28;20178;-62
2022/06/01 02:02:52;;;;;;;1.47;1.30;;;17.00;71.20;;;;;;5088438;28;20178;-62
2022/06/01 02:08:35;;;;;;;1.30;1.20;;;17.00;69.60;;;;;;5072743;28;20236;-62
2022/06/01 02:14:05;;;;;;;1.10;1.00;;;17.00;69.50;;;;;;5057388;28;20244;-62
2022/06/01 02:16:35;;;;;;;1.77;1.40;;;17.00;70.50;;;;;;5074670;28;20203;-62
2022/06/01 02:19:04;;;;;;;2.27;1.13;;;16.90;69.80;;;;;;5058464;28;20182;-62
2022/06/01 02:21:30;;;;;;;3.80;1.27;;;16.90;69.60;;;;;;5057465;28;20182;-62
2022/06/01 02:23:59;;;;;;;3.07;1.63;;;16.90;70.80;;;;;;5059117;28;20186;-62
2022/06/01 02:26:26;;;;;;;1.97;1.30;;;16.80;71.50;;;;;;5058636;28;20183;-62
2022/06/01 02:29:15;;;;;;;1.50;1.40;;;16.80;72.50;;;;;;5056206;28;20225;-62
2022/06/01 02:31:43;;;;;;;3.07;1.57;;;16.70;73.10;;;;;;5068778;28;20195;-62
2022/06/01 02:34:09;;;;;;;1.80;1.30;;;16.60;73.60;;;;;;5071333;28;20181;-61
2022/06/01 02:36:39;;;;;;;1.37;1.20;;;16.50;73.30;;;;;;5059279;28;20177;-61
2022/06/01 02:39:07;;;;;;;3.27;1.40;;;16.50;73.30;;;;;;5076473;28;20272;-62
2022/06/01 02:44:18;;;;;;;3.67;1.17;;;16.30;74.30;;;;;;5062289;28;20237;-62
2022/06/01 02:46:44;;;;;;;1.57;1.37;;;16.30;74.00;;;;;;5054813;28;20186;-62
2022/06/01 02:49:10;;;;;;;4.30;1.40;;;16.30;74.40;;;;;;5062081;28;20229;-62
2022/06/01 02:51:36;;;;;;;2.03;1.07;;;16.30;74.80;;;;;;5037399;28;20218;-62
2022/06/01 02:54:02;;;;;;;4.03;1.40;;;16.30;75.30;;;;;;5063491;28;20205;-62
2022/06/01 02:56:28;;;;;;;1.50;1.40;;;16.30;75.60;;;;;;5056422;28;20231;-62
2022/06/01 02:58:54;;;;;;;1.50;1.40;;;16.20;75.80;;;;;;5062672;28;20200;-62
2022/06/01 03:01:21;;;;;;;1.13;1.10;;;16.20;75.70;;;;;;5053952;28;20190;-62
2022/06/01 03:03:47;;;;;;;1.60;1.20;;;16.20;75.60;;;;;;5046295;28;20277;-62
2022/06/01 03:06:14;;;;;;;1.10;1.00;;;16.10;75.60;;;;;;5051354;28;20194;-61
2022/06/01 03:08:40;;;;;;;1.07;1.00;;;16.10;74.90;;;;;;5074508;28;20198;-61
2022/06/01 03:11:06;;;;;;;2.63;1.43;;;16.10;75.20;;;;;;5040880;28;20280;-61
2022/06/01 03:13:31;;;;;;;2.50;1.23;;;16.10;75.20;;;;;;5074202;28;20186;-61
2022/06/01 03:15:58;;;;;;;1.93;1.00;;;16.10;75.30;;;;;;5074950;28;20186;-61
2022/06/01 03:18:23;;;;;;;1.53;1.03;;;16.10;75.20;;;;;;5068059;28;20182;-61
2022/06/01 03:20:50;;;;;;;1.17;1.07;;;16.00;75.10;;;;;;5062109;28;20247;-61
2022/06/01 03:23:15;;;;;;;1.80;1.20;;;16.00;75.40;;;;;;5070897;28;20182;-61
2022/06/01 03:25:41;;;;;;;1.90;1.10;;;16.00;75.70;;;;;;5065257;28;20193;-61
2022/06/01 03:28:07;;;;;;;1.13;1.03;;;16.00;76.00;;;;;;5066256;28;20223;-61
2022/06/01 03:30:34;;;;;;;2.37;1.23;;;15.90;76.10;;;;;;5053569;28;20189;-61
2022/06/01 03:33:00;;;;;;;3.13;1.20;;;15.90;76.20;;;;;;5048958;28;20201;-61
2022/06/01 03:35:29;;;;;;;1.03;1.03;;;15.80;76.10;;;;;;5066250;28;20206;-61
2022/06/01 03:37:57;;;;;;;1.10;1.00;;;15.80;76.10;;;;;;5070688;28;20179;-61
2022/06/01 03:40:25;;;;;;;2.43;1.43;;;15.80;76.30;;;;;;5052958;28;20190;-61
2022/06/01 03:42:50;;;;;;;2.23;1.10;;;15.80;76.40;;;;;;5057057;28;20234;-61
2022/06/01 03:48:00;;;;;;;0.97;0.90;;;15.80;75.40;;;;;;5061816;28;20196;-62
2022/06/01 03:50:28;;;;;;;3.10;1.40;;;15.90;74.00;;;;;;5040332;28;20186;-62
2022/06/01 03:52:53;;;;;;;1.80;1.40;;;15.90;74.80;;;;;;5057192;28;20205;-62
2022/06/01 03:55:20;;;;;;;0.80;0.80;;;15.80;75.40;;;;;;5056589;28;20641;-62
2022/06/01 03:57:46;;;;;;;1.80;1.23;;;15.80;75.80;;;;;;5083047;28;20171;-62
2022/06/01 04:00:16;;;;;;;1.73;1.20;;;15.80;76.00;;;;;;5055461;28;20186;-62
2022/06/01 04:02:41;;;;;;;2.43;1.37;;;15.70;76.10;;;;;;5060487;28;20232;-63
2022/06/01 04:05:08;;;;;;;1.37;1.23;;;15.70;76.30;;;;;;5053540;28;20185;-62
2022/06/01 04:07:34;;;;;;;1.77;1.27;;;15.60;76.50;;;;;;5056259;28;20193;-62
2022/06/01 04:10:00;;;;;;;1.43;1.27;;;15.60;76.80;;;;;;5033964;28;20206;-63
2022/06/01 04:12:26;;;;;;;1.27;1.17;;;15.60;77.00;;;;;;5040869;28;20186;-62
2022/06/01 04:14:51;;;;;;;1.30;1.20;;;15.60;77.10;;;;;;5059876;28;20186;-62
2022/06/01 04:17:17;;;;;;;1.20;1.10;;;15.50;77.20;;;;;;5053725;28;20191;-62
2022/06/01 04:19:42;;;;;;;1.07;1.03;;;15.50;77.40;;;;;;5038950;28;20194;-62
2022/06/01 04:22:11;;;;;;;0.87;0.87;;;15.40;77.20;;;;;;5010512;28;20741;-61
2022/06/01 04:24:37;;;;;;;1.50;1.30;;;15.40;77.30;;;;;;5053131;28;20286;-61
2022/06/01 04:27:04;;;;;;;1.30;0.90;;;15.40;77.60;;;;;;5056048;28;20292;-61
2022/06/01 04:29:29;;;;;;;2.70;1.30;;;15.30;77.80;;;;;;5064463;28;20218;-61
2022/06/01 04:32:09;;;;;;;1.40;1.20;;;15.30;78.00;;;;;;5056897;28;20190;-61
2022/06/01 04:34:35;;;;;;;1.20;1.10;;;15.30;78.40;;;;;;5068615;28;20182;-61
2022/06/01 04:37:01;;;;;;;1.17;1.07;;;15.30;78.50;;;;;;5060124;28;20197;-61
2022/06/01 04:39:26;;;;;;;1.47;1.30;;;15.30;78.70;;;;;;5059031;28;20189;-61
2022/06/01 04:41:52;;;;;;;2.23;1.20;;;15.30;78.80;;;;;;5034539;28;20198;-62
2022/06/01 04:44:19;;;;;;;2.50;1.00;;;15.30;78.90;;;;;;5076042;28;20198;-62
2022/06/01 04:46:45;;;;;;;1.20;1.10;;;15.30;79.20;;;;;;5062374;28;20194;-62
2022/06/01 04:49:11;;;;;;;1.63;1.10;;;15.30;79.50;;;;;;5046290;28;20270;-62
2022/06/01 04:51:37;;;;;;;1.20;1.10;;;15.30;79.70;;;;;;5053488;28;20194;-62
2022/06/01 04:54:03;;;;;;;1.57;1.10;;;15.30;79.80;;;;;;5042200;28;20190;-62
2022/06/01 04:56:29;;;;;;;2.53;1.20;;;15.30;79.90;;;;;;5063589;28;20193;-61
2022/06/01 04:58:55;;;;;;;1.50;1.40;;;15.30;80.00;;;;;;5051210;28;20312;-62
2022/06/01 05:01:21;;;;;;;2.17;1.40;;;15.30;80.10;;;;;;5055820;28;20198;-62
2022/06/01 05:03:47;;;;;;;2.50;1.60;;;15.30;80.30;;;;;;5070092;28;20201;-63
2022/06/01 05:06:13;;;;;;;2.43;1.40;;;15.30;80.30;;;;;;5062300;28;20198;-60
2022/06/01 05:08:38;;;;;;;2.13;1.50;;;15.30;80.40;;;;;;5052332;28;20216;-61
2022/06/01 05:11:04;;;;;;;1.70;1.60;;;15.30;80.50;;;;;;5054729;28;20232;-61
2022/06/01 05:13:30;;;;;;;1.40;1.30;;;15.30;80.70;;;;;;5062717;28;20189;-61
2022/06/01 05:15:58;;;;;;;1.83;1.37;;;15.30;80.80;;;;;;5058937;28;20193;-61
2022/06/01 05:18:25;;;;;;;2.17;1.90;;;15.30;80.90;;;;;;5067296;28;20190;-61
2022/06/01 05:20:53;;;;;;;1.80;1.70;;;15.30;80.80;;;;;;5068050;28;20200;-61
2022/06/01 05:23:19;;;;;;;4.13;1.97;;;15.30;80.70;;;;;;5050967;28;20190;-61
2022/06/01 05:25:47;;;;;;;1.97;1.87;;;15.30;80.80;;;;;;5044918;28;20202;-61
2022/06/01 05:28:16;;;;;;;2.47;2.10;;;15.30;80.90;;;;;;5044117;28;20206;-61
2022/06/01 05:30:42;;;;;;;2.13;2.03;;;15.40;81.40;;;;;;5061726;28;20197;-61
2022/06/01 05:33:07;;;;;;;2.77;2.57;;;15.40;81.50;;;;;;5055591;28;20536;-63
2022/06/01 05:35:33;;;;;;;5.47;4.00;;;15.40;81.80;;;;;;5057898;28;20216;-62
2022/06/01 05:37:59;;;;;;;4.50;4.10;;;15.50;82.50;;;;;;5047148;28;20246;-62
2022/06/01 05:40:25;;;;;;;6.60;4.70;;;15.60;82.60;;;;;;5056573;28;20387;-62
2022/06/01 05:42:51;;;;;;;4.27;3.60;;;15.80;82.80;;;;;;5045835;28;20254;-61
2022/06/01 05:45:17;;;;;;;5.13;3.23;;;15.80;82.10;;;;;;5054928;28;20183;-61
2022/06/01 05:47:43;;;;;;;4.47;3.00;;;15.90;78.40;;;;;;5052417;28;20195;-61
2022/06/01 05:50:09;;;;;;;2.87;2.67;;;16.00;78.70;;;;;;5074518;28;20241;-62
2022/06/01 05:52:38;;;;;;;2.40;2.20;;;16.10;78.60;;;;;;5071292;28;20196;-62
2022/06/01 05:55:08;;;;;;;3.47;3.17;;;16.10;78.50;;;;;;5061476;28;20198;-62
2022/06/01 05:57:34;;;;;;;3.60;3.30;;;16.20;78.50;;;;;;5052362;28;20193;-61
2022/06/01 06:00:01;;;;;;;3.90;3.17;;;16.20;78.90;;;;;;5069055;28;20198;-62
2022/06/01 06:02:26;;;;;;;3.93;3.53;;;16.30;79.10;;;;;;5061243;28;20190;-62
2022/06/01 06:04:52;;;;;;;4.13;3.50;;;16.30;79.30;;;;;;5055213;28;20206;-60
2022/06/01 06:07:18;;;;;;;4.97;3.67;;;16.30;79.80;;;;;;5056210;28;20288;-61
2022/06/01 06:09:43;;;;;;;3.77;3.10;;;16.30;79.60;;;;;;5049607;28;20210;-61
2022/06/01 06:12:09;;;;;;;3.30;3.00;;;16.40;78.70;;;;;;5042086;28;20202;-61
2022/06/01 06:14:34;;;;;;;3.50;2.73;;;16.40;78.90;;;;;;5045676;28;20197;-62
2022/06/01 06:17:00;;;;;;;3.50;3.20;;;16.50;76.70;;;;;;5050263;28;20220;-61
2022/06/01 06:19:26;;;;;;;3.07;2.77;;;16.60;76.60;;;;;;5040102;28;20254;-61
2022/06/01 06:21:51;;;;;;;2.57;2.37;;;16.70;75.20;;;;;;5040794;28;20197;-61
2022/06/01 06:24:20;;;;;;;4.50;2.77;;;16.80;74.90;;;;;;5054913;28;20223;-61
2022/06/01 06:26:46;;;;;;;3.13;2.33;;;16.80;74.80;;;;;;5058675;28;20190;-62
2022/06/01 06:29:14;;;;;;;3.60;2.10;;;16.90;73.70;;;;;;5084598;28;20205;-61
2022/06/01 06:31:40;;;;;;;2.90;2.63;;;16.90;74.30;;;;;;5068926;28;20190;-62
2022/06/01 06:34:06;;;;;;;5.37;2.63;;;17.00;74.60;;;;;;5072182;28;20232;-62
2022/06/01 06:36:32;;;;;;;2.60;2.10;;;17.00;73.40;;;;;;5064925;28;20236;-62
2022/06/01 06:38:57;;;;;;;3.37;2.07;;;17.00;73.60;;;;;;5057927;28;20198;-62
2022/06/01 06:41:24;;;;;;;2.70;2.23;;;17.10;72.20;;;;;;5067602;28;20285;-61
2022/06/01 06:43:51;;;;;;;1.80;1.63;;;17.10;72.60;;;;;;5051027;28;20246;-62
2022/06/01 06:46:20;;;;;;;2.30;2.10;;;17.10;73.20;;;;;;5062192;28;20200;-62
2022/06/01 06:48:48;;;;;;;1.90;1.70;;;17.10;73.80;;;;;;5072678;28;20225;-62
2022/06/01 06:51:15;;;;;;;2.97;1.80;;;17.10;74.20;;;;;;5064942;28;20212;-62
2022/06/01 06:53:41;;;;;;;3.40;2.67;;;17.00;74.50;;;;;;5066156;28;20194;-62
2022/06/01 06:56:07;;;;;;;2.30;1.90;;;17.00;74.10;;;;;;5072160;28;20189;-62
2022/06/01 06:58:34;;;;;;;2.83;2.03;;;17.10;74.40;;;;;;5068773;28;20194;-61
2022/06/01 07:00:59;;;;;;;2.20;2.00;;;17.10;74.10;;;;;;5064817;28;20198;-62
2022/06/01 07:03:25;;;;;;;2.47;2.27;;;17.20;74.40;;;;;;5039369;28;20272;-62
2022/06/01 07:06:10;;;;;;;2.50;2.30;;;17.20;74.60;;;;;;5037939;28;20201;-62
2022/06/01 07:08:41;;;;;;;2.57;2.37;;;17.20;73.90;;;;;;5063344;28;20234;-62
2022/06/01 07:11:07;;;;;;;1.97;1.70;;;17.20;74.90;;;;;;5082278;28;20194;-62
2022/06/01 07:13:34;;;;;;;2.33;2.13;;;17.20;74.60;;;;;;5052519;28;20194;-62
2022/06/01 07:16:22;;;;;;;2.97;1.97;;;17.30;72.40;;;;;;5055891;28;20190;-62
2022/06/01 07:18:50;;;;;;;2.60;2.23;;;17.40;72.70;;;;;;5075340;28;20210;-62
2022/06/01 07:21:16;;;;;;;5.27;2.50;;;17.40;73.20;;;;;;5052213;28;20277;-62
2022/06/01 07:23:43;;;;;;;3.73;2.30;;;17.50;71.40;;;;;;5038908;28;20197;-62
2022/06/01 07:26:12;;;;;;;2.90;1.90;;;17.60;71.60;;;;;;5061037;28;20214;-61
2022/06/01 07:28:38;;;;;;;2.30;2.10;;;17.70;71.00;;;;;;5065039;28;20217;-62
2022/06/01 07:31:06;;;;;;;3.23;2.00;;;17.80;71.60;;;;;;5072389;28;20186;-61
2022/06/01 07:33:33;;;;;;;2.40;2.20;;;17.70;72.10;;;;;;5055244;28;20194;-61
2022/06/01 07:36:00;;;;;;;1.93;1.73;;;17.80;72.40;;;;;;5061860;28;20238;-61
2022/06/01 07:44:00;;;;;;;2.40;2.17;;;17.90;71.20;;;;;;5069068;28;20251;-62
2022/06/01 07:46:25;;;;;;;2.27;2.07;;;17.90;68.90;;;;;;5070607;28;20194;-62
2022/06/01 07:48:53;;;;;;;2.07;1.97;;;18.10;68.60;;;;;;5064843;28;20218;-61
2022/06/01 07:51:20;;;;;;;2.80;1.70;;;18.10;69.20;;;;;;5054989;28;20217;-62
2022/06/01 07:53:46;;;;;;;1.80;1.63;;;18.20;68.60;;;;;;5052399;28;20209;-62
2022/06/01 07:56:12;;;;;;;1.90;1.80;;;18.20;69.00;;;;;;5069785;28;20186;-62
2022/06/01 07:58:38;;;;;;;1.90;1.80;;;18.30;69.40;;;;;;5041902;28;20204;-62
2022/06/01 08:01:05;;;;;;;2.77;2.03;;;18.30;69.70;;;;;;5051495;28;20194;-62
2022/06/01 08:03:30;;;;;;;3.63;2.77;;;18.50;66.60;;;;;;5061896;28;20285;-61
2022/06/01 08:05:56;;;;;;;2.70;1.90;;;18.70;64.70;;;;;;5066672;28;20371;-61
2022/06/01 08:08:22;;;;;;;4.63;2.20;;;18.80;65.10;;;;;;5070757;28;20213;-62
2022/06/01 08:10:48;;;;;;;4.93;2.73;;;18.80;65.40;;;;;;5064722;28;20242;-62
2022/06/01 08:13:15;;;;;;;2.80;2.30;;;19.00;64.70;;;;;;5062553;28;20212;-62
2022/06/01 08:15:46;;;;;;;4.57;2.30;;;19.10;65.00;;;;;;5073256;28;20273;-61
2022/06/01 08:18:18;;;;;;;3.07;2.37;;;19.20;65.50;;;;;;5050282;28;20190;-62
2022/06/01 08:20:44;;;;;;;2.53;2.33;;;19.20;66.10;;;;;;5065394;28;20186;-62
2022/06/01 08:23:10;;;;;;;5.93;2.43;;;19.30;66.40;;;;;;5058836;28;20220;-62
2022/06/01 08:25:36;;;;;;;3.87;2.57;;;19.30;66.20;;;;;;5063863;28;20199;-62
2022/06/01 08:28:04;;;;;;;6.27;3.20;;;19.30;67.20;;;;;;5036593;28;20218;-62
2022/06/01 08:30:31;;;;;;;4.50;2.60;;;19.50;64.60;;;;;;5068633;28;20261;-62
2022/06/01 08:32:58;;;;;;;2.93;2.57;;;19.50;65.00;;;;;;5068094;28;20284;-62
2022/06/01 08:35:28;;;;;;;3.40;2.33;;;19.70;65.40;;;;;;5047360;28;20206;-62
2022/06/01 08:37:54;;;;;;;3.37;2.70;;;19.80;65.90;;;;;;5071179;28;20192;-63
2022/06/01 08:40:24;;;;;;;5.93;2.50;;;19.80;64.70;;;;;;5063459;28;20190;-61
2022/06/01 08:42:59;;;;;;;3.27;2.50;;;20.00;63.40;;;;;;5058825;28;20250;-62
2022/06/01 08:45:26;;;;;;;2.30;2.10;;;20.10;63.80;;;;;;5062614;28;20224;-62
2022/06/01 08:47:52;;;;;;;3.60;2.17;;;20.20;63.20;;;;;;5055611;28;20210;-62
2022/06/01 08:50:37;;;;;;;3.20;2.37;;;20.20;62.60;;;;;;5053958;28;20253;-62
2022/06/01 08:53:05;;;;;;;2.20;2.00;;;20.20;63.10;;;;;;5062508;28;20190;-61
2022/06/01 08:55:48;;;;;;;1.90;1.70;;;20.30;61.40;;;;;;5058083;28;20201;-62
2022/06/01 08:58:25;;;;;;;2.70;2.00;;;20.40;63.10;;;;;;5061825;28;20210;-62
2022/06/01 09:00:58;;;;;;;4.30;1.93;;;20.50;61.30;;;;;;5050878;28;20273;-62
2022/06/01 09:03:34;;;;;;;2.10;1.90;;;20.60;59.80;;;;;;5059726;28;20193;-62
2022/06/01 09:06:22;;;;;;;3.43;1.83;;;20.80;59.90;;;;;;5081441;28;20194;-62
2022/06/01 09:09:06;;;;;;;3.17;2.07;;;20.80;60.40;;;;;;5065062;28;20304;-62
2022/06/01 09:11:35;;;;;;;2.33;2.13;;;20.90;59.30;;;;;;5058137;28;20191;-62
2022/06/01 09:14:30;;;;;;;2.13;1.93;;;20.90;59.80;;;;;;5070392;28;20177;-62
2022/06/01 09:16:57;;;;;;;2.17;1.97;;;21.00;58.10;;;;;;5066209;28;20194;-62
2022/06/01 09:22:37;;;;;;;2.43;2.23;;;21.10;57.90;;;;;;5062200;28;20190;-62
2022/06/01 09:25:03;;;;;;;2.50;2.00;;;21.30;58.70;;;;;;5066039;28;20225;-62
2022/06/01 09:27:42;;;;;;;2.73;2.03;;;21.30;57.40;;;;;;5068208;28;20253;-62
2022/06/01 09:30:32;;;;;;;2.50;2.17;;;21.40;59.20;;;;;;5069045;28;20294;-62
2022/06/01 09:33:12;;;;;;;2.23;2.03;;;21.60;59.00;;;;;;5063634;28;20233;-62
2022/06/01 09:35:45;;;;;;;2.80;2.07;;;21.70;59.90;;;;;;5055870;28;20212;-62
2022/06/01 09:38:36;;;;;;;2.83;2.40;;;21.80;57.90;;;;;;5070210;28;20668;-62
2022/06/01 09:41:24;;;;;;;2.07;1.87;;;21.80;55.50;;;;;;5075364;28;20198;-62
2022/06/01 09:44:02;;;;;;;3.90;2.10;;;21.90;55.90;;;;;;5059652;28;20234;-62
2022/06/01 09:46:47;;;;;;;2.23;2.03;;;22.00;56.50;;;;;;5054694;28;20188;-61
2022/06/01 09:49:19;;;;;;;2.87;2.40;;;22.20;54.00;;;;;;5068191;28;20343;-61
2022/06/01 09:51:48;;;;;;;2.30;2.10;;;22.20;55.60;;;;;;5064705;28;20182;-61
2022/06/01 09:54:37;;;;;;;2.10;1.90;;;22.30;54.30;;;;;;5056533;28;20193;-61
2022/06/01 09:57:38;;;;;;;2.60;2.10;;;22.30;54.10;;;;;;5067719;28;20178;-61
2022/06/01 10:06:25;;;;;;;3.00;1.90;;;22.50;57.20;;;;;;5049078;28;20205;-61
2022/06/01 10:09:10;;;;;;;2.23;1.80;;;22.60;57.00;;;;;;5071139;28;20240;-61
2022/06/01 10:11:40;;;;;;;1.60;1.50;;;22.70;55.40;;;;;;5060298;28;20269;-61
2022/06/01 10:14:18;;;;;;;3.20;1.77;;;22.70;55.50;;;;;;5063817;28;20186;-62
2022/06/01 10:17:13;;;;;;;2.07;1.87;;;22.90;57.20;;;;;;5074728;28;20193;-62
2022/06/01 10:19:43;;;;;;;2.70;1.80;;;23.00;53.30;;;;;;5070798;28;20287;-62
2022/06/01 10:22:15;;;;;;;1.83;1.53;;;23.10;50.10;;;;;;5074330;28;20190;-62
2022/06/01 10:24:54;;;;;;;1.60;1.50;;;23.30;50.30;;;;;;5070964;28;20297;-61
2022/06/01 10:27:22;;;;;;;1.93;1.60;;;23.30;50.00;;;;;;5054045;28;20188;-61
2022/06/01 10:29:57;;;;;;;1.57;1.47;;;23.30;48.60;;;;;;5066306;28;20304;-61
2022/06/01 10:33:03;;;;;;;1.83;1.40;;;23.30;48.50;;;;;;5065282;28;20182;-61
2022/06/01 10:35:44;;;;;;;1.50;1.40;;;23.40;47.80;;;;;;4962213;28;20188;-62
2022/06/01 10:38:22;;;;;;;1.73;1.40;;;23.40;49.50;;;;;;5059915;28;20198;-61
2022/06/01 10:40:56;;;;;;;1.43;1.30;;;23.40;49.70;;;;;;5066749;28;20184;-62
2022/06/01 10:43:31;;;;;;;1.40;1.30;;;23.50;49.50;;;;;;5065224;28;20217;-61
2022/06/01 10:46:14;;;;;;;1.50;1.40;;;23.60;51.60;;;;;;5067021;28;20271;-62
2022/06/01 10:48:48;;;;;;;2.13;1.37;;;23.70;50.70;;;;;;5067837;28;20213;-62
2022/06/01 10:51:22;;;;;;;3.00;1.50;;;23.80;47.30;;;;;;5058051;28;20185;-62
2022/06/01 10:53:59;;;;;;;2.97;1.43;;;24.00;48.40;;;;;;5056088;28;20186;-62
2022/06/01 10:56:26;;;;;;;3.13;1.30;;;24.10;49.00;;;;;;5053318;28;20185;-61
2022/06/01 10:58:58;;;;;;;1.60;1.50;;;24.10;47.00;;;;;;5070341;28;20224;-62
2022/06/01 11:01:39;;;;;;;1.67;1.40;;;24.20;48.30;;;;;;5072603;28;20189;-62
2022/06/01 11:04:40;;;;;;;1.67;1.57;;;24.20;48.80;;;;;;5067171;28;20190;-62
2022/06/01 11:07:15;;;;;;;2.03;1.53;;;24.30;47.40;;;;;;5058755;28;20182;-61
2022/06/01 11:09:47;;;;;;;1.43;1.33;;;24.40;48.30;;;;;;5057404;28;20250;-62
2022/06/01 11:12:45;;;;;;;1.50;1.30;;;24.50;45.50;;;;;;5063804;28;20270;-61
2022/06/01 11:15:23;;;;;;;1.80;1.40;;;24.50;47.70;;;;;;5048350;28;20284;-62
2022/06/01 11:18:02;;;;;;;7.53;4.40;;;24.70;48.50;;;;;;5065117;28;20209;-62
2022/06/01 11:20:57;;;;;;;9.80;4.57;;;24.80;44.60;;;;;;5065137;28;20185;-63
2022/06/01 11:23:49;;;;;;;36.80;16.87;;;25.00;42.20;;;;;;5058427;28;20182;-63
2022/06/01 11:27:10;;;;;;;44.63;20.93;;;25.00;45.50;;;;;;5072773;28;20275;-63
2022/06/01 11:30:05;;;;;;;5.27;4.30;;;25.10;48.70;;;;;;5031118;28;20248;-62
2022/06/01 11:32:58;;;;;;;4.03;2.87;;;25.30;44.40;;;;;;5075736;28;20182;-62
2022/06/01 11:35:31;;;;;;;4.97;2.97;;;25.50;43.50;;;;;;5068247;28;20249;-61
2022/06/01 11:38:03;;;;;;;3.37;1.80;;;25.30;42.70;;;;;;5078869;28;20205;-62
2022/06/01 11:40:47;;;;;;;4.73;2.60;;;25.60;43.20;;;;;;5072692;28;20185;-62
2022/06/01 11:43:37;;;;;;;9.67;4.47;;;25.90;43.00;;;;;;5059669;28;20248;-62
2022/06/01 11:46:22;;;;;;;4.53;2.73;;;26.20;43.90;;;;;;5056768;28;20221;-62
2022/06/01 11:48:53;;;;;;;10.07;4.80;;;26.70;41.30;;;;;;5054770;28;20218;-62
2022/06/01 11:51:25;;;;;;;23.93;11.13;;;27.00;41.10;;;;;;5054316;28;20187;-62
2022/06/01 11:54:14;;;;;;;20.13;9.70;;;27.40;43.60;;;;;;5070972;28;20184;-63
2022/06/01 11:57:00;;;;;;;19.87;8.20;;;27.80;45.20;;;;;;5055041;28;20196;-63
2022/06/01 11:59:32;;;;;;;10.50;5.03;;;28.50;42.50;;;;;;5059475;28;20207;-63
2022/06/01 12:02:00;;;;;;;3.27;2.10;;;28.70;40.50;;;;;;5061952;28;20235;-63
2022/06/01 12:04:50;;;;;;;3.57;2.57;;;28.80;40.00;;;;;;5068576;28;20194;-63
2022/06/01 12:07:32;;;;;;;5.20;2.50;;;28.80;42.60;;;;;;5072258;28;20191;-63
2022/06/01 12:10:19;;;;;;;2.87;2.50;;;28.60;41.60;;;;;;5065539;28;20209;-63
2022/06/01 12:13:03;;;;;;;3.60;2.27;;;28.40;40.20;;;;;;5060845;28;20178;-63
2022/06/01 12:16:04;;;;;;;2.10;1.80;;;28.20;43.90;;;;;;5070962;28;20201;-63
2022/06/01 12:18:31;;;;;;;5.13;3.23;;;27.90;43.10;;;;;;5071753;28;20190;-63
2022/06/01 12:21:21;;;;;;;15.07;6.80;;;27.90;44.20;;;;;;5050212;28;20212;-63
2022/06/01 12:29:35;;;;;;;9.73;5.07;;;30.70;36.10;;;;;;5061958;28;20236;-63
2022/06/01 12:32:06;;;;;;;3.30;2.50;;;32.10;37.00;;;;;;5069587;28;20189;-63
2022/06/01 12:34:40;;;;;;;9.53;4.13;;;33.20;32.30;;;;;;5074900;28;20177;-63
2022/06/01 12:37:08;;;;;;;8.87;4.50;;;34.20;32.80;;;;;;5057430;28;20190;-61
2022/06/01 12:39:40;;;;;;;10.47;4.93;;;35.30;32.00;;;;;;5055571;28;20214;-62
2022/06/01 12:42:25;;;;;;;5.17;3.37;;;36.10;30.50;;;;;;5081783;28;20316;-63
2022/06/01 12:44:54;;;;;;;2.80;2.37;;;36.70;29.40;;;;;;5079343;28;20182;-63
2022/06/01 12:47:25;;;;;;;4.47;2.43;;;36.80;29.50;;;;;;5050691;28;20190;-63
2022/06/01 12:49:51;;;;;;;2.37;1.57;;;36.70;28.70;;;;;;5067685;28;20305;-63
2022/06/01 12:52:24;;;;;;;5.57;2.97;;;36.20;27.60;;;;;;5066208;28;20189;-63
2022/06/01 12:54:57;;;;;;;2.10;1.73;;;36.70;26.90;;;;;;5064071;28;20178;-62
2022/06/01 12:57:41;;;;;;;8.20;3.30;;;37.20;26.10;;;;;;5060341;28;20255;-63
2022/06/01 13:00:29;;;;;;;1.80;1.63;;;37.80;27.40;;;;;;5070962;28;20213;-63
2022/06/01 13:02:55;;;;;;;2.47;1.50;;;38.40;25.70;;;;;;5069307;28;20221;-61
2022/06/01 13:05:20;;;;;;;3.77;1.60;;;38.40;23.10;;;;;;5072842;28;20217;-61
2022/06/01 13:07:50;;;;;;;2.90;1.53;;;38.40;24.60;;;;;;5054417;28;20235;-61
2022/06/01 13:10:28;;;;;;;2.27;1.53;;;39.20;24.50;;;;;;5059142;28;20245;-61
2022/06/01 13:13:25;;;;;;;1.77;1.53;;;39.40;23.60;;;;;;5067221;28;20186;-61
2022/06/01 13:15:59;;;;;;;2.53;1.33;;;39.70;26.00;;;;;;5062014;28;20246;-62
2022/06/01 13:18:35;;;;;;;4.43;1.40;;;39.70;24.90;;;;;;5071159;28;20181;-61
2022/06/01 13:21:32;;;;;;;1.70;1.57;;;38.80;25.10;;;;;;5061946;28;20244;-61
2022/06/01 13:24:00;;;;;;;2.13;1.40;;;38.10;26.00;;;;;;5060667;28;20190;-59
2022/06/01 13:26:34;;;;;;;2.07;1.30;;;37.00;26.80;;;;;;5059585;28;20194;-59
2022/06/01 13:29:14;;;;;;;1.20;1.10;;;36.60;26.80;;;;;;5054979;28;20296;-61
2022/06/01 13:31:42;;;;;;;1.40;1.20;;;36.00;29.40;;;;;;5061040;28;20186;-61
2022/06/01 13:34:16;;;;;;;1.40;1.33;;;35.20;27.90;;;;;;5062639;28;20212;-61
2022/06/01 13:36:42;;;;;;;1.07;1.03;;;34.50;27.30;;;;;;5057731;28;20191;-61
2022/06/01 13:39:13;;;;;;;2.00;1.40;;;33.80;31.50;;;;;;5057422;28;20212;-61
2022/06/01 13:41:52;;;;;;;2.77;1.40;;;33.80;32.50;;;;;;5061767;28;20509;-61